Tempos de volta de KART DRIVERS KART DRIVERS - WHITE DRIVERS / PROVA 2 - 20:00
KARTODROMO INTERNACIONAL GRANJA VIANA a funcionar KGV RACE TRACKS CIRCUITO - 119
Tempos de volta de KART DRIVERS - KART DRIVERS - WHITE DRIVERS / PROVA 2 - 20:00


Hora do dia Volta Volta do Líder Volta Tm Velocidade
026 - TOMAZ BRUNO - RENTAL
20:10:00.966 1 1 51.563 57,250
20:10:52.958 2 2 51.992 56,778
20:11:44.181 3 3 51.223 57,630
20:12:35.014 4 4 50.833 58,073
20:13:25.932 5 5 50.918 57,976
20:14:16.915 6 6 50.983 57,902
20:15:08.033 7 7 51.118 57,749
20:16:01.966 8 8 53.933 54,735
20:16:53.063 9 9 51.097 57,772
20:17:44.124 10 10 51.061 57,813
20:18:35.401 11 11 51.277 57,570
20:19:27.052 12 12 51.651 57,153
20:20:18.259 13 13 51.207 57,648
20:21:09.269 14 14 51.010 57,871
20:22:00.638 15 15 51.369 57,467
20:22:51.651 16 16 51.013 57,868
20:23:42.896 17 17 51.245 57,606
20:24:33.831 18 18 50.935 57,956
20:25:25.140 19 19 51.309 57,534
20:26:16.094 20 20 50.954 57,935
20:27:07.908 21 21 51.814 56,973
042 - VITOR TELES - RENTAL
20:10:03.407 1 1 52.204 56,547
20:10:55.483 2 2 52.076 56,686
20:11:48.658 3 3 53.175 55,515
20:12:42.003 4 4 53.345 55,338
20:13:33.324 5 5 51.321 57,520
20:14:25.281 6 6 51.957 56,816
20:15:16.972 7 7 51.691 57,109
20:16:08.569 8 8 51.597 57,213
20:17:00.805 9 9 52.236 56,513
20:17:52.348 10 10 51.543 57,273
20:18:44.556 11 11 52.208 56,543
20:19:36.110 12 12 51.554 57,260
20:20:28.012 13 13 51.902 56,876
20:21:19.540 14 14 51.528 57,289
20:22:11.538 15 15 51.998 56,771
20:23:03.657 16 16 52.119 56,640
20:23:55.825 17 17 52.168 56,586
20:24:47.343 18 18 51.518 57,300
20:25:38.955 19 19 51.612 57,196
20:26:30.856 20 20 51.901 56,878
20:27:22.571 21 21 51.715 57,082
022 - GIOVANE GUIMARAES - RENTAL
20:10:04.772 1 1 51.770 57,021
20:10:57.811 2 2 53.039 55,657
20:11:50.054 3 3 52.243 56,505
20:12:42.192 4 4 52.138 56,619
20:13:34.335 5 5 52.143 56,614
20:14:26.936 6 6 52.601 56,121
20:15:17.981 7 7 51.045 57,831
20:16:09.617 8 8 51.636 57,169
20:17:01.072 9 9 51.455 57,371
20:17:52.487 10 10 51.415 57,415
20:18:44.980 11 11 52.493 56,236
20:19:36.205 12 12 51.225 57,628
20:20:28.070 13 13 51.865 56,917
20:21:19.788 14 14 51.718 57,079
20:22:12.958 15 15 53.170 55,520
20:23:06.618 16 16 53.660 55,013
20:23:58.560 17 17 51.942 56,833
20:24:50.054 18 18 51.494 57,327
20:25:40.962 19 19 50.908 57,987
20:26:32.394 20 20 51.432 57,396
20:27:23.932 21 21 51.538 57,278
006 - JOSUEL ROSALINO - RENTAL
20:10:10.349 1 1 51.908 56,870
20:11:02.641 2 2 52.292 56,452
20:11:54.693 3 3 52.052 56,713
20:12:46.347 4 4 51.654 57,149
20:13:38.124 5 5 51.777 57,014
20:14:29.673 6 6 51.549 57,266
20:15:21.732 7 7 52.059 56,705
20:16:13.499 8 8 51.767 57,025
20:17:06.031 9 9 52.532 56,194
20:17:57.862 10 10 51.831 56,954
20:18:49.531 11 11 51.669 57,133
20:19:41.420 12 12 51.889 56,891
20:20:32.904 13 13 51.484 57,338
20:21:24.387 14 14 51.483 57,339
20:22:16.043 15 15 51.656 57,147
20:23:07.294 16 16 51.251 57,599
20:23:58.694 17 17 51.400 57,432
20:24:50.509 18 18 51.815 56,972
20:25:41.550 19 19 51.041 57,836
20:26:32.768 20 20 51.218 57,636
20:27:24.166 21 21 51.398 57,434
021 - RENATO MAKOTO - RENTAL
20:10:04.279 1 1 52.586 56,137
20:10:57.472 2 2 53.193 55,496
20:11:49.808 3 3 52.336 56,405
20:12:42.372 4 4 52.564 56,160
20:13:33.424 5 5 51.052 57,823
20:14:32.394 6 6 58.970 50,059
20:15:23.392 7 7 50.998 57,885
20:16:15.510 8 8 52.118 56,641
20:17:08.019 9 9 52.509 56,219
20:18:07.925 10 10 59.906 49,277
20:18:59.419 11 11 51.494 57,327
20:19:50.930 12 12 51.511 57,308
20:20:42.049 13 13 51.119 57,748
20:21:33.620 14 14 51.571 57,241
20:22:24.766 15 15 51.146 57,717
20:23:16.062 16 16 51.296 57,548
20:24:07.383 17 17 51.321 57,520
20:24:59.146 18 18 51.763 57,029
20:25:50.823 19 19 51.677 57,124
20:26:42.512 20 20 51.689 57,111
20:27:33.680 21 21 51.168 57,692
035 - VALDEMIR SOUZA - RENTAL
20:10:08.355 1 1 52.416 56,319
20:10:59.685 2 2 51.330 57,510
20:11:50.830 3 3 51.145 57,718
20:12:43.716 4 4 52.886 55,818
20:13:35.843 5 5 52.127 56,631
20:14:27.798 6 6 51.955 56,818
20:15:19.553 7 7 51.755 57,038
20:16:10.634 8 8 51.081 57,791
20:17:01.865 9 9 51.231 57,621
20:17:53.269 10 10 51.404 57,427
20:18:45.298 11 11 52.029 56,738
20:19:36.411 12 12 51.113 57,754
20:20:28.274 13 13 51.863 56,919
20:21:19.946 14 14 51.672 57,130
20:22:12.745 15 15 52.799 55,910
20:23:06.160 16 16 53.415 55,265
20:23:57.927 17 17 51.767 57,025
20:24:48.943 18 18 51.016 57,864
20:25:40.097 19 19 51.154 57,708
20:26:31.666 20 20 51.569 57,244
20:27:23.778 21 21 52.112 56,647
040 - GUSTAVO GUIMARAES - RENTAL
20:10:14.096 1 1 52.866 55,839
20:11:06.946 2 2 52.850 55,856
20:11:58.304 3 3 51.358 57,479
20:12:50.100 4 4 51.796 56,993
20:13:41.473 5 5 51.373 57,462
20:14:33.793 6 6 52.320 56,422
20:15:25.115 7 7 51.322 57,519
20:16:16.538 8 8 51.423 57,406
20:17:08.190 9 9 51.652 57,152
20:17:59.475 10 10 51.285 57,561
20:18:52.890 11 11 53.415 55,265
20:19:45.009 12 12 52.119 56,640
20:20:37.258 13 13 52.249 56,499
20:21:30.339 14 14 53.081 55,613
20:22:22.137 15 15 51.798 56,991
20:23:13.832 16 16 51.695 57,104
20:24:05.781 17 17 51.949 56,825
20:24:59.019 18 18 53.238 55,449
20:25:51.072 19 19 52.053 56,711
20:26:42.852 20 20 51.780 57,010
20:27:34.152 21 21 51.300 57,544
041 - THIAGO PICCOLOTTO - RENTAL
20:10:04.479 1 1 51.967 56,805
20:10:57.204 2 2 52.725 55,989
20:11:49.351 3 3 52.147 56,609
20:12:43.309 4 4 53.958 54,709
20:13:34.575 5 5 51.266 57,582
20:14:27.357 6 6 52.782 55,928
20:15:19.101 7 7 51.744 57,050
20:16:09.908 8 8 50.807 58,102
20:17:01.255 9 9 51.347 57,491
20:17:52.786 10 10 51.531 57,286
20:18:45.693 11 11 52.907 55,796
20:19:36.888 12 12 51.195 57,662
20:20:28.411 13 13 51.523 57,295
20:21:35.883 14 14 1:07.472 43,751
20:22:26.734 15 15 50.851 58,052
20:23:18.620 16 16 51.886 56,894
20:24:09.664 17 17 51.044 57,832
20:25:00.935 18 18 51.271 57,576
20:25:52.464 19 19 51.529 57,288
20:26:43.469 20 20 51.005 57,877
20:27:34.617 21 21 51.148 57,715
011 - BRUNNO RIOS - RENTAL
20:10:05.110 1 1 51.657 57,146
20:10:58.061 2 2 52.951 55,750
20:11:50.086 3 3 52.025 56,742
20:12:42.866 4 4 52.780 55,930
20:13:35.329 5 5 52.463 56,268
20:14:27.691 6 6 52.362 56,377
20:15:20.323 7 7 52.632 56,088
20:16:12.329 8 8 52.006 56,763
20:17:06.303 9 9 53.974 54,693
20:17:59.043 10 10 52.740 55,973
20:18:53.388 11 11 54.345 54,320
20:19:46.688 12 12 53.300 55,385
20:20:38.316 13 13 51.628 57,178
20:21:30.610 14 14 52.294 56,450
20:22:24.298 15 15 53.688 54,984
20:23:16.604 16 16 52.306 56,437
20:24:08.500 17 17 51.896 56,883
20:25:00.789 18 18 52.289 56,455
20:25:51.947 19 19 51.158 57,704
20:26:43.378 20 20 51.431 57,397
20:27:35.248 21 21 51.870 56,912
020 - LEONARDO MOREIRA - RENTAL
20:10:03.626 1 1 52.413 56,322
20:10:55.613 2 2 51.987 56,783
20:11:48.868 3 3 53.255 55,431
20:12:45.287 4 4 56.419 52,323
20:13:37.101 5 5 51.814 56,973
20:14:29.310 6 6 52.209 56,542
20:15:21.275 7 7 51.965 56,807
20:16:12.893 8 8 51.618 57,189
20:17:06.459 9 9 53.566 55,110
20:17:59.409 10 10 52.950 55,751
20:18:53.351 11 11 53.942 54,725
20:19:46.179 12 12 52.828 55,879
20:20:38.192 13 13 52.013 56,755
20:21:30.233 14 14 52.041 56,725
20:22:22.050 15 15 51.817 56,970
20:23:13.683 16 16 51.633 57,173
20:24:05.742 17 17 52.059 56,705
20:24:59.048 18 18 53.306 55,378
20:25:50.797 19 19 51.749 57,045
20:26:42.888 20 20 52.091 56,670
20:27:36.221 21 21 53.333 55,350
017 - DANIEL SICCHIEROLLI - RENTAL
20:10:04.244 1 1 52.625 56,095
20:10:56.390 2 2 52.146 56,610
20:11:49.006 3 3 52.616 56,105
20:12:42.112 4 4 53.106 55,587
20:13:34.300 5 5 52.188 56,565
20:14:28.978 6 6 54.678 53,989
20:15:21.646 7 7 52.668 56,049
20:16:13.245 8 8 51.599 57,210
20:17:06.837 9 9 53.592 55,083
20:17:59.278 10 10 52.441 56,292
20:18:51.765 11 11 52.487 56,242
20:19:43.347 12 12 51.582 57,229
20:20:35.099 13 13 51.752 57,041
20:21:26.852 14 14 51.753 57,040
20:22:18.189 15 15 51.337 57,502
20:23:09.920 16 16 51.731 57,064
20:24:01.953 17 17 52.033 56,733
20:24:53.696 18 18 51.743 57,051
20:25:45.448 19 19 51.752 57,041
20:26:37.041 20 20 51.593 57,217
20:27:28.985 21 21 51.944 56,830
004 - GUILHERME FIGUEREDO - RENTAL
20:10:08.171 1 1 51.920 56,857
20:10:59.852 2 2 51.681 57,120
20:12:01.020 3 3 1:01.168 48,261
20:12:52.763 4 4 51.743 57,051
20:13:44.733 5 5 51.970 56,802
20:14:36.610 6 6 51.877 56,904
20:15:27.870 7 7 51.260 57,589
20:16:19.021 8 8 51.151 57,711
20:17:10.220 9 9 51.199 57,657
20:18:02.634 10 10 52.414 56,321
20:18:53.868 11 11 51.234 57,618
20:19:45.272 12 12 51.404 57,427
20:20:37.381 13 13 52.109 56,650
20:21:29.792 14 14 52.411 56,324
20:22:21.265 15 15 51.473 57,350
20:23:12.575 16 16 51.310 57,533
20:24:04.283 17 17 51.708 57,090
20:24:57.331 18 18 53.048 55,648
20:25:58.569 19 19 1:01.238 48,205
20:26:50.187 20 20 51.618 57,189
20:27:41.508 21 21 51.321 57,520
008 - CLAUDIO FERNANDES - RENTAL
20:10:14.735 1 1 54.824 53,845
20:11:07.713 2 2 52.978 55,721
20:11:59.954 3 3 52.241 56,507
20:12:51.487 4 4 51.533 57,284
20:13:44.481 5 5 52.994 55,704
20:14:37.337 6 6 52.856 55,850
20:15:29.334 7 7 51.997 56,773
20:16:20.926 8 8 51.592 57,218
20:17:13.613 9 9 52.687 56,029
20:18:05.861 10 10 52.248 56,500
20:18:57.923 11 11 52.062 56,702
20:19:49.767 12 12 51.844 56,940
20:20:42.536 13 13 52.769 55,942
20:21:34.559 14 14 52.023 56,744
20:22:25.990 15 15 51.431 57,397
20:23:18.995 16 16 53.005 55,693
20:24:13.151 17 17 54.156 54,509
20:25:05.709 18 18 52.558 56,167
20:25:58.938 19 19 53.229 55,458
20:26:50.688 20 20 51.750 57,043
20:27:41.958 21 21 51.270 57,578
007 - MARCELO LIMA - RENTAL
20:10:23.278 1 1 1:05.224 45,259
20:11:17.322 2 2 54.044 54,622
20:12:09.489 3 3 52.167 56,587
20:13:02.239 4 4 52.750 55,962
20:13:54.292 5 5 52.053 56,711
20:14:48.000 6 6 53.708 54,964
20:15:40.361 7 7 52.361 56,378
20:16:32.832 8 8 52.471 56,260
20:17:25.238 9 9 52.406 56,329
20:18:18.220 10 10 52.982 55,717
20:19:11.004 11 11 52.784 55,926
20:20:02.591 12 12 51.587 57,224
20:20:54.725 13 13 52.134 56,623
20:21:46.913 14 14 52.188 56,565
20:22:38.643 15 15 51.730 57,066
20:23:30.331 16 16 51.688 57,112
20:24:21.963 17 17 51.632 57,174
20:25:13.153 18 18 51.190 57,668
20:26:04.809 19 19 51.656 57,147
20:26:56.883 20 20 52.074 56,689
20:27:49.347 21 21 52.464 56,267
002 - EDUARDO SGNOTTO - RENTAL
20:10:03.107 1 1 52.200 56,552
20:10:55.239 2 2 52.132 56,625
20:11:48.825 3 3 53.586 55,089
20:12:41.249 4 4 52.424 56,310
20:13:33.044 5 5 51.795 56,994
20:14:27.258 6 6 54.214 54,451
20:15:20.116 7 7 52.858 55,848
20:16:12.085 8 8 51.969 56,803
20:17:06.008 9 9 53.923 54,745
20:17:58.787 10 10 52.779 55,931
20:18:52.060 11 11 53.273 55,413
20:19:43.672 12 12 51.612 57,196
20:20:35.350 13 13 51.678 57,123
20:21:27.314 14 14 51.964 56,809
20:22:18.717 15 15 51.403 57,429
20:23:10.202 16 16 51.485 57,337
20:24:02.936 17 17 52.734 55,979
20:24:54.732 18 18 51.796 56,993
20:25:46.733 19 19 52.001 56,768
20:26:38.451 20 20 51.718 57,079
20:27:30.083 21 21 51.632 57,174
023 - IAGO GODOY - RENTAL
20:10:12.302 1 1 53.577 55,098
20:11:04.830 2 2 52.528 56,199
20:11:57.105 3 3 52.275 56,471
20:12:50.341 4 4 53.236 55,451
20:13:44.086 5 5 53.745 54,926
20:14:39.949 6 6 55.863 52,844
20:15:33.184 7 7 53.235 55,452
20:16:25.175 8 8 51.991 56,779
20:17:20.950 9 9 55.775 52,927
20:18:14.695 10 10 53.745 54,926
20:19:08.590 11 11 53.895 54,773
20:20:00.828 12 12 52.238 56,511
20:20:52.370 13 13 51.542 57,274
20:21:44.339 14 14 51.969 56,803
20:22:36.389 15 15 52.050 56,715
20:23:28.684 16 16 52.295 56,449
20:24:21.015 17 17 52.331 56,410
20:25:12.841 18 18 51.826 56,960
20:26:04.513 19 19 51.672 57,130
20:26:57.932 20 20 53.419 55,261
20:27:51.891 21 21 53.959 54,708
005 - JORGE MARCELINO - RENTAL
20:10:23.216 1 1 54.924 53,747
20:11:16.531 2 2 53.315 55,369
20:12:09.042 3 3 52.511 56,217
20:13:01.282 4 4 52.240 56,508
20:13:53.491 5 5 52.209 56,542
20:14:49.920 6 6 56.429 52,314
20:15:42.155 7 7 52.235 56,514
20:16:34.050 8 8 51.895 56,884
20:17:25.769 9 9 51.719 57,078
20:18:18.595 10 10 52.826 55,882
20:19:13.143 11 11 54.548 54,117
20:20:06.673 12 12 53.530 55,147
20:20:58.642 13 13 51.969 56,803
20:21:50.661 14 14 52.019 56,748
20:22:42.779 15 15 52.118 56,641
20:23:34.442 16 16 51.663 57,140
20:24:26.503 17 17 52.061 56,703
20:25:18.645 18 18 52.142 56,615
20:26:11.048 19 19 52.403 56,333
20:27:03.475 20 20 52.427 56,307
20:27:56.163 21 21 52.688 56,028
015 - RICARDO FARIA - RENTAL
20:10:25.883 1 1 53.003 55,695
20:11:19.242 2 2 53.359 55,323
20:12:11.634 3 3 52.392 56,344
20:13:04.062 4 4 52.428 56,306
20:13:56.233 5 5 52.171 56,583
20:14:50.770 6 6 54.537 54,128
20:15:43.413 7 7 52.643 56,076
20:16:35.593 8 8 52.180 56,573
20:17:28.053 9 9 52.460 56,271
20:18:20.509 10 10 52.456 56,276
20:19:13.380 11 11 52.871 55,834
20:20:06.592 12 12 53.212 55,476
20:20:58.380 13 13 51.788 57,002
20:21:50.327 14 14 51.947 56,827
20:22:42.221 15 15 51.894 56,885
20:23:34.334 16 16 52.113 56,646
20:24:26.438 17 17 52.104 56,656
20:25:19.017 18 18 52.579 56,144
20:26:11.502 19 19 52.485 56,245
20:27:04.060 20 20 52.558 56,167
20:27:56.385 21 21 52.325 56,417
014 - MAURICIO ZAMBIANCO - RENTAL
20:10:13.620 1 1 55.442 53,245
20:11:06.555 2 2 52.935 55,767
20:11:59.793 3 3 53.238 55,449
20:12:53.043 4 4 53.250 55,437
20:13:46.436 5 5 53.393 55,288
20:14:39.519 6 6 53.083 55,611
20:15:32.185 7 7 52.666 56,051
20:16:24.803 8 8 52.618 56,102
20:17:20.192 9 9 55.389 53,296
20:18:14.769 10 10 54.577 54,089
20:19:13.039 11 11 58.270 50,661
20:20:06.115 12 12 53.076 55,618
20:20:58.173 13 13 52.058 56,706
20:21:50.931 14 14 52.758 55,954
20:22:43.541 15 15 52.610 56,111
20:23:36.680 16 16 53.139 55,552
20:24:28.898 17 17 52.218 56,532
20:25:20.849 18 18 51.951 56,823
20:26:12.686 19 19 51.837 56,948
20:27:05.707 20 20 53.021 55,676
20:27:58.479 21 21 52.772 55,939
028 - EVANIL JUNIOR - RENTAL
20:10:15.565 1 1 54.910 53,761
20:11:09.061 2 2 53.496 55,182
20:12:02.295 3 3 53.234 55,453
20:12:55.296 4 4 53.001 55,697
20:13:48.263 5 5 52.967 55,733
20:14:41.612 6 6 53.349 55,334
20:15:34.213 7 7 52.601 56,121
20:16:27.010 8 8 52.797 55,912
20:17:19.931 9 9 52.921 55,781
20:18:14.654 10 10 54.723 53,944
20:19:08.131 11 11 53.477 55,201
20:20:01.565 12 12 53.434 55,246
20:20:54.112 13 13 52.547 56,178
20:21:47.372 14 14 53.260 55,426
20:22:40.091 15 15 52.719 55,995
20:23:32.764 16 16 52.673 56,044
20:24:25.608 17 17 52.844 55,863
20:25:18.391 18 18 52.783 55,927
20:26:11.391 19 19 53.000 55,698
20:27:05.219 20 20 53.828 54,841
20:27:58.643 21 21 53.424 55,256
018 - MARCOS MOREIRA - RENTAL
20:10:13.865 1 1 54.062 54,604
20:11:07.437 2 2 53.572 55,103
20:12:00.502 3 3 53.065 55,630
20:12:53.385 4 4 52.883 55,821
20:13:46.312 5 5 52.927 55,775
20:14:49.269 6 6 1:02.957 46,889
20:15:43.042 7 7 53.773 54,897
20:16:35.187 8 8 52.145 56,611
20:17:28.313 9 9 53.126 55,566
20:18:20.886 10 10 52.573 56,150
20:19:14.060 11 11 53.174 55,516
20:20:08.976 12 12 54.916 53,755
20:21:02.118 13 13 53.142 55,549
20:21:54.593 14 14 52.475 56,255
20:22:47.400 15 15 52.807 55,902
20:23:40.420 16 16 53.020 55,677
20:24:35.359 17 18 54.939 53,732
20:25:28.276 18 19 52.917 55,785
20:26:21.010 19 20 52.734 55,979
20:27:14.829 20 21 53.819 54,851
025 - GABRIEL LIMA - RENTAL
20:10:22.896 1 1 55.290 53,391
20:11:15.890 2 2 52.994 55,704
20:12:08.456 3 3 52.566 56,158
20:13:00.499 4 4 52.043 56,722
20:13:53.183 5 5 52.684 56,032
20:15:04.800 6 6 1:11.617 41,219
20:15:57.022 7 7 52.222 56,528
20:16:49.042 8 8 52.020 56,747
20:17:41.335 9 9 52.293 56,451
20:18:33.636 10 10 52.301 56,443
20:19:27.823 11 12 54.187 54,478
20:20:19.898 12 13 52.075 56,687
20:21:11.830 13 14 51.932 56,844
20:22:04.291 14 15 52.461 56,270
20:22:57.632 15 16 53.341 55,342
20:23:49.515 16 17 51.883 56,897
20:24:41.307 17 18 51.792 56,997
20:25:33.000 18 19 51.693 57,106
20:26:25.285 19 20 52.285 56,460
20:27:18.912 20 21 53.627 55,047
034 - VINICIUS SANTOS - RENTAL
20:10:12.675 1 1 53.690 54,982
20:11:05.366 2 2 52.691 56,025
20:11:57.965 3 3 52.599 56,123
20:12:50.740 4 4 52.775 55,936
20:13:43.496 5 5 52.756 55,956
20:14:37.271 6 6 53.775 54,895
20:15:30.772 7 7 53.501 55,177
20:16:24.126 8 8 53.354 55,329
20:17:24.003 9 9 59.877 49,301
20:18:18.409 10 10 54.406 54,259
20:19:12.551 11 11 54.142 54,523
20:20:05.623 12 12 53.072 55,623
20:21:06.386 13 13 1:00.763 48,582
20:21:59.955 14 14 53.569 55,106
20:22:53.044 15 16 53.089 55,605
20:23:46.351 16 17 53.307 55,377
20:24:39.304 17 18 52.953 55,748
20:25:31.998 18 19 52.694 56,022
20:26:25.080 19 20 53.082 55,612
20:27:19.435 20 21 54.355 54,310
039 - VITTOR LEMOS - RENTAL
20:10:07.844 1 1 52.180 56,573
20:10:59.089 2 2 51.245 57,606
20:11:50.415 3 3 51.326 57,515
20:12:43.484 4 4 53.069 55,626
20:13:35.562 5 5 52.078 56,684
20:14:49.301 6 6 1:13.739 40,033
20:15:40.916 7 7 51.615 57,193
20:16:32.915 8 8 51.999 56,770
20:17:24.751 9 9 51.836 56,949
20:18:16.642 10 10 51.891 56,888
20:19:08.236 11 11 51.594 57,216
20:19:59.863 12 12 51.627 57,179
20:20:51.032 13 13 51.169 57,691
20:21:42.962 14 14 51.930 56,846
20:22:34.551 15 15 51.589 57,222
20:23:26.327 16 16 51.776 57,015
20:24:17.397 17 17 51.070 57,803
20:25:08.669 18 18 51.272 57,575
20:25:59.648 19 19 50.979 57,906
20:27:20.428 20 21 1:20.780 36,544
033 - VITOR VILAS - RENTAL
20:10:43.349 1 1 53.430 55,250
20:11:36.149 2 2 52.800 55,909
20:12:28.803 3 3 52.654 56,064
20:13:21.182 4 4 52.379 56,358
20:14:13.662 5 5 52.480 56,250
20:15:07.074 6 6 53.412 55,268
20:16:00.550 7 7 53.476 55,202
20:16:52.394 8 8 51.844 56,940
20:17:45.092 9 10 52.698 56,017
20:18:37.462 10 11 52.370 56,368
20:19:29.791 11 12 52.329 56,412
20:20:23.116 12 13 53.325 55,359
20:21:15.741 13 14 52.625 56,095
20:22:09.208 14 15 53.467 55,212
20:23:01.259 15 16 52.051 56,714
20:23:53.552 16 17 52.293 56,451
20:24:46.361 17 18 52.809 55,900
20:25:39.361 18 19 53.000 55,698
20:26:32.480 19 20 53.119 55,573
20:27:25.431 20 21 52.951 55,750
013 - MARCELO HORA - RENTAL
20:10:09.736 1 1 52.423 56,311
20:11:02.091 2 2 52.355 56,384
20:11:54.862 3 3 52.771 55,940
20:12:47.175 4 4 52.313 56,430
20:13:39.029 5 5 51.854 56,929
20:14:31.581 6 6 52.552 56,173
20:15:23.238 7 7 51.657 57,146
20:16:15.342 8 8 52.104 56,656
20:17:07.424 9 9 52.082 56,680
20:18:39.907 10 11 1:32.483 31,919
20:19:32.309 11 12 52.402 56,334
20:20:24.418 12 13 52.109 56,650
20:21:16.581 13 14 52.163 56,592
20:22:08.801 14 15 52.220 56,530
20:23:00.843 15 16 52.042 56,723
20:23:54.021 16 17 53.178 55,512
20:24:46.570 17 18 52.549 56,176
20:25:38.874 18 19 52.304 56,439
20:26:31.248 19 20 52.374 56,364
20:27:23.566 20 21 52.318 56,424
001 - BRUNO LACRETA - RENTAL
20:10:30.835 1 1 1:12.430 40,757
20:11:26.150 2 2 55.315 53,367
20:12:21.705 3 3 55.555 53,137
20:13:16.358 4 4 54.653 54,014
20:14:10.778 5 5 54.420 54,245
20:15:07.202 6 6 56.424 52,318
20:16:03.366 7 8 56.164 52,560
20:16:58.028 8 9 54.662 54,005
20:17:51.903 9 10 53.875 54,794
20:18:47.032 10 11 55.129 53,547
20:19:41.282 11 12 54.250 54,415
20:20:34.917 12 13 53.635 55,039
20:21:30.394 13 14 55.477 53,211
20:22:24.569 14 15 54.175 54,490
20:23:18.408 15 16 53.839 54,830
20:24:13.099 16 17 54.691 53,976
20:25:09.391 17 18 56.292 52,441
20:26:03.300 18 19 53.909 54,759
20:26:57.622 19 20 54.322 54,343
20:27:52.388 20 21 54.766 53,902
019 - MARCIO MARTIN - RENTAL
20:10:52.577 1 1 54.420 54,245
20:11:46.734 2 3 54.157 54,508
20:12:39.394 3 4 52.660 56,058
20:13:32.371 4 5 52.977 55,722
20:14:26.122 5 6 53.751 54,920
20:15:18.822 6 7 52.700 56,015
20:16:11.441 7 8 52.619 56,101
20:17:05.644 8 9 54.203 54,462
20:17:58.498 9 10 52.854 55,852
20:18:52.283 10 11 53.785 54,885
20:19:44.446 11 12 52.163 56,592
20:20:37.076 12 13 52.630 56,090
20:21:30.157 13 14 53.081 55,613
20:22:24.108 14 15 53.951 54,716
20:23:16.361 15 16 52.253 56,494
20:24:07.949 16 17 51.588 57,223
20:25:00.699 17 18 52.750 55,962
20:26:09.863 18 19 1:09.164 42,681
20:27:02.845 19 20 52.982 55,717
20:27:55.562 20 21 52.717 55,997
010 - KLEBER SANTOS - RENTAL
20:10:25.154 1 1 55.098 53,577
20:11:20.203 2 2 55.049 53,625
20:12:14.385 3 3 54.182 54,483
20:13:08.489 4 4 54.104 54,562
20:14:03.230 5 5 54.741 53,927
20:14:58.805 6 6 55.575 53,117
20:15:52.348 7 7 53.543 55,133
20:16:46.258 8 8 53.910 54,758
20:17:40.025 9 9 53.767 54,904
20:18:35.307 10 10 55.282 53,399
20:19:29.154 11 12 53.847 54,822
20:20:22.875 12 13 53.721 54,951
20:21:17.952 13 14 55.077 53,598
20:22:13.245 14 15 55.293 53,388
20:23:09.569 15 16 56.324 52,411
20:24:04.765 16 17 55.196 53,482
20:25:00.347 17 18 55.582 53,111
20:26:12.363 18 19 1:12.016 40,991
20:27:07.451 19 20 55.088 53,587
20:28:01.507 20 21 54.056 54,610
016 - ERICK MARTIN - RENTAL
20:10:51.642 1 1 59.102 49,948
20:11:48.377 2 3 56.735 52,031
20:12:46.121 3 4 57.744 51,122
20:13:42.747 4 5 56.626 52,132
20:15:06.514 5 6 1:23.767 35,241
20:16:04.892 6 8 58.378 50,567
20:17:09.579 7 9 1:04.687 45,635
20:18:14.410 8 10 1:04.831 45,534
20:19:13.295 9 11 58.885 50,132
20:20:10.267 10 12 56.972 51,815
20:21:06.283 11 13 56.016 52,699
20:22:02.012 12 15 55.729 52,971
20:22:59.810 13 16 57.798 51,074
20:24:03.281 14 17 1:03.471 46,509
20:24:59.435 15 18 56.154 52,570
20:25:58.762 16 19 59.327 49,758
20:26:54.784 17 20 56.022 52,694
20:27:58.765 18 21 1:03.981 46,139
Gerada em 09/09/2020 19:03